BZRK1: S Cottonwood River nr Bazarr KS

Data processed at Mon Apr 20 23:44:34 2015 Central Daylight Time


All information presented herein is the property of the government of the United States of America and may be revised or deleted at any time without prior notice.
Dissemination of this information without the expressed written consent of the Public Affairs Office, Tulsa District U.S. Army Corps of Engineers is strictly prohibited.
These data are gathered electronically and, as presented, have not undergone any form of quality control. These data are not guaranteed to be valid or correct.
Go to home page.
Go to station list.
Go to station map.

Downstream station:

Previous Day
Next Day
Current Day

Display graphics.
Display DCP transmissions.


    
    SHEF ID:       BZRK1     S Cottonwood River nr Bazarr KS
    STATION TYPE:  STREAM GAGE
    Regulation Limits:  Stage =   20.00, Flow =    5933
    
                   PRECIP     STAGE  RIV-FLOW  BAT-LOAD
                   INCHES      FEET       CFS     VOLTS
                     GOES      GOES      GOES      GOES
       (Cen)
    04/20 01:00      0.00     11.02       977     12.54
    04/20 02:00      0.00     10.98       960     12.54
    04/20 03:00      0.00     10.82       904     12.48
    04/20 04:00      0.00     10.64       846     12.48
    04/20 05:00      0.00     10.44       782     12.48
    04/20 06:00      0.00     10.25       721      ----
    04/20 07:00      0.00     10.09       669     12.48
    04/20 08:00      0.00      9.94       621      ----
    04/20 09:00      0.00      9.84       589     12.54
    04/20 10:00      0.00      9.74       556     12.89
    04/20 11:00      0.00      9.66       531     13.12
    04/20 12:00      0.00      9.56       499     12.83
    04/20 13:00      0.00      9.49       476     13.12
    04/20 14:00      0.00      9.42       453     13.00
    04/20 15:00      0.00      9.35       431     13.18
    04/20 16:00      0.00      9.29       412     13.18
    04/20 17:00      0.00      9.24       395     12.95
    04/20 18:00      0.00      9.20       383     12.89
    04/20 19:00      0.00      9.14       363     12.83
    04/20 20:00      0.00      9.08       348     12.77
    04/20 21:00      0.00      9.04       339     12.71
    04/20 22:00      0.00      9.01       332     12.71
    04/20 23:00      0.00      8.97       323     12.71
    04/21 00:00      ----      ----      ----      ----